sensor_id;sensor_type;location;lat;lon;timestamp;P1;durP1;ratioP1;P2;durP2;ratioP2
77051;SDS011;65980;44.898;8.602;2023-08-24T00:00:33;15.57;;;7.93;;
77051;SDS011;65980;44.898;8.602;2023-08-24T00:03:39;11.70;;;7.63;;
77051;SDS011;65980;44.898;8.602;2023-08-24T00:06:43;15.75;;;7.38;;
77051;SDS011;65980;44.898;8.602;2023-08-24T00:09:48;17.38;;;7.25;;
77051;SDS011;65980;44.898;8.602;2023-08-24T00:12:53;10.02;;;7.38;;
77051;SDS011;65980;44.898;8.602;2023-08-24T00:15:57;11.23;;;7.25;;
77051;SDS011;65980;44.898;8.602;2023-08-24T00:19:01;14.32;;;8.80;;
77051;SDS011;65980;44.898;8.602;2023-08-24T00:22:05;19.80;;;9.70;;
77051;SDS011;65980;44.898;8.602;2023-08-24T00:25:09;23.30;;;9.63;;
77051;SDS011;65980;44.898;8.602;2023-08-24T00:28:14;16.85;;;8.88;;
77051;SDS011;65980;44.898;8.602;2023-08-24T00:31:18;16.90;;;9.80;;
77051;SDS011;65980;44.898;8.602;2023-08-24T00:34:26;19.52;;;9.80;;
77051;SDS011;65980;44.898;8.602;2023-08-24T00:37:30;12.10;;;8.48;;
77051;SDS011;65980;44.898;8.602;2023-08-24T00:40:35;11.52;;;8.07;;
77051;SDS011;65980;44.898;8.602;2023-08-24T00:43:39;16.42;;;8.73;;
77051;SDS011;65980;44.898;8.602;2023-08-24T00:46:45;18.23;;;8.70;;
77051;SDS011;65980;44.898;8.602;2023-08-24T00:49:49;17.17;;;8.90;;
77051;SDS011;65980;44.898;8.602;2023-08-24T00:52:54;16.70;;;10.02;;
77051;SDS011;65980;44.898;8.602;2023-08-24T00:55:59;16.48;;;9.25;;
77051;SDS011;65980;44.898;8.602;2023-08-24T00:59:04;10.98;;;8.45;;
77051;SDS011;65980;44.898;8.602;2023-08-24T01:02:08;14.10;;;7.45;;
77051;SDS011;65980;44.898;8.602;2023-08-24T01:05:12;15.70;;;7.88;;
77051;SDS011;65980;44.898;8.602;2023-08-24T01:08:18;10.85;;;7.57;;
77051;SDS011;65980;44.898;8.602;2023-08-24T01:14:41;17.02;;;8.05;;
77051;SDS011;65980;44.898;8.602;2023-08-24T01:17:55;16.58;;;8.10;;
77051;SDS011;65980;44.898;8.602;2023-08-24T01:21:04;12.50;;;7.93;;
77051;SDS011;65980;44.898;8.602;2023-08-24T01:24:10;13.18;;;7.90;;
77051;SDS011;65980;44.898;8.602;2023-08-24T01:27:18;15.05;;;8.02;;
77051;SDS011;65980;44.898;8.602;2023-08-24T01:30:24;15.73;;;8.25;;
77051;SDS011;65980;44.898;8.602;2023-08-24T01:33:29;20.42;;;8.00;;
77051;SDS011;65980;44.898;8.602;2023-08-24T01:36:34;15.05;;;10.00;;
77051;SDS011;65980;44.898;8.602;2023-08-24T01:39:42;16.15;;;10.68;;
77051;SDS011;65980;44.898;8.602;2023-08-24T01:43:13;16.67;;;10.27;;
77051;SDS011;65980;44.898;8.602;2023-08-24T01:46:19;15.57;;;10.65;;
77051;SDS011;65980;44.898;8.602;2023-08-24T01:49:27;17.48;;;11.10;;
77051;SDS011;65980;44.898;8.602;2023-08-24T01:52:32;16.38;;;11.80;;
77051;SDS011;65980;44.898;8.602;2023-08-24T01:55:40;14.63;;;10.68;;
77051;SDS011;65980;44.898;8.602;2023-08-24T01:58:45;16.50;;;10.73;;
77051;SDS011;65980;44.898;8.602;2023-08-24T02:01:50;19.35;;;11.10;;
77051;SDS011;65980;44.898;8.602;2023-08-24T02:04:54;17.13;;;9.98;;
77051;SDS011;65980;44.898;8.602;2023-08-24T02:07:59;13.70;;;10.40;;
77051;SDS011;65980;44.898;8.602;2023-08-24T02:11:04;17.48;;;10.13;;
77051;SDS011;65980;44.898;8.602;2023-08-24T02:14:10;12.32;;;8.95;;
77051;SDS011;65980;44.898;8.602;2023-08-24T02:17:15;15.65;;;10.63;;
77051;SDS011;65980;44.898;8.602;2023-08-24T02:20:22;14.32;;;10.00;;
77051;SDS011;65980;44.898;8.602;2023-08-24T02:23:26;18.65;;;10.23;;
77051;SDS011;65980;44.898;8.602;2023-08-24T02:26:31;18.35;;;10.25;;
77051;SDS011;65980;44.898;8.602;2023-08-24T02:29:35;18.42;;;10.68;;
77051;SDS011;65980;44.898;8.602;2023-08-24T02:32:40;16.77;;;10.40;;
77051;SDS011;65980;44.898;8.602;2023-08-24T02:35:49;13.60;;;10.80;;
77051;SDS011;65980;44.898;8.602;2023-08-24T02:38:53;20.35;;;10.50;;
77051;SDS011;65980;44.898;8.602;2023-08-24T02:41:57;15.50;;;10.60;;
77051;SDS011;65980;44.898;8.602;2023-08-24T02:45:01;18.42;;;10.77;;
77051;SDS011;65980;44.898;8.602;2023-08-24T02:48:08;15.00;;;11.18;;
77051;SDS011;65980;44.898;8.602;2023-08-24T02:51:13;17.90;;;10.65;;
77051;SDS011;65980;44.898;8.602;2023-08-24T02:54:17;21.65;;;10.88;;
77051;SDS011;65980;44.898;8.602;2023-08-24T02:57:21;17.25;;;11.25;;
77051;SDS011;65980;44.898;8.602;2023-08-24T03:00:25;13.43;;;10.63;;
77051;SDS011;65980;44.898;8.602;2023-08-24T03:03:30;17.92;;;11.15;;
77051;SDS011;65980;44.898;8.602;2023-08-24T03:06:34;17.58;;;11.07;;
77051;SDS011;65980;44.898;8.602;2023-08-24T03:09:39;22.20;;;10.68;;
77051;SDS011;65980;44.898;8.602;2023-08-24T03:12:43;18.10;;;9.73;;
77051;SDS011;65980;44.898;8.602;2023-08-24T03:15:47;18.77;;;11.65;;
77051;SDS011;65980;44.898;8.602;2023-08-24T03:18:52;16.70;;;10.25;;
77051;SDS011;65980;44.898;8.602;2023-08-24T03:21:56;17.98;;;11.57;;
77051;SDS011;65980;44.898;8.602;2023-08-24T03:25:01;13.77;;;10.43;;
77051;SDS011;65980;44.898;8.602;2023-08-24T03:28:06;16.67;;;10.55;;
77051;SDS011;65980;44.898;8.602;2023-08-24T03:31:11;17.85;;;10.60;;
77051;SDS011;65980;44.898;8.602;2023-08-24T03:34:15;17.30;;;10.45;;
77051;SDS011;65980;44.898;8.602;2023-08-24T03:37:20;17.05;;;10.80;;
77051;SDS011;65980;44.898;8.602;2023-08-24T03:40:25;18.02;;;9.85;;
77051;SDS011;65980;44.898;8.602;2023-08-24T03:43:53;15.50;;;10.60;;
77051;SDS011;65980;44.898;8.602;2023-08-24T03:46:57;16.45;;;10.30;;
77051;SDS011;65980;44.898;8.602;2023-08-24T03:50:01;18.13;;;10.65;;
77051;SDS011;65980;44.898;8.602;2023-08-24T03:53:06;15.68;;;10.10;;
77051;SDS011;65980;44.898;8.602;2023-08-24T03:56:10;16.33;;;10.98;;
77051;SDS011;65980;44.898;8.602;2023-08-24T03:59:14;23.45;;;10.82;;
77051;SDS011;65980;44.898;8.602;2023-08-24T04:02:18;16.60;;;10.10;;
77051;SDS011;65980;44.898;8.602;2023-08-24T04:05:22;19.60;;;9.55;;
77051;SDS011;65980;44.898;8.602;2023-08-24T04:08:26;15.60;;;10.38;;
77051;SDS011;65980;44.898;8.602;2023-08-24T04:11:30;14.00;;;9.38;;
77051;SDS011;65980;44.898;8.602;2023-08-24T04:14:34;13.00;;;10.00;;
77051;SDS011;65980;44.898;8.602;2023-08-24T04:17:41;22.55;;;10.23;;
77051;SDS011;65980;44.898;8.602;2023-08-24T04:20:46;18.70;;;9.73;;
77051;SDS011;65980;44.898;8.602;2023-08-24T04:23:50;17.70;;;9.85;;
77051;SDS011;65980;44.898;8.602;2023-08-24T04:26:54;13.70;;;8.60;;
77051;SDS011;65980;44.898;8.602;2023-08-24T04:29:58;13.63;;;9.57;;
77051;SDS011;65980;44.898;8.602;2023-08-24T04:33:03;14.18;;;9.93;;
77051;SDS011;65980;44.898;8.602;2023-08-24T04:36:08;22.17;;;9.90;;
77051;SDS011;65980;44.898;8.602;2023-08-24T04:39:12;16.92;;;9.45;;
77051;SDS011;65980;44.898;8.602;2023-08-24T04:42:16;16.15;;;10.15;;
77051;SDS011;65980;44.898;8.602;2023-08-24T04:45:20;14.63;;;10.32;;
77051;SDS011;65980;44.898;8.602;2023-08-24T04:48:25;17.58;;;10.55;;
77051;SDS011;65980;44.898;8.602;2023-08-24T04:51:30;18.55;;;10.63;;
77051;SDS011;65980;44.898;8.602;2023-08-24T04:54:34;24.95;;;11.75;;
77051;SDS011;65980;44.898;8.602;2023-08-24T04:57:38;17.65;;;11.13;;
77051;SDS011;65980;44.898;8.602;2023-08-24T05:00:42;26.13;;;11.63;;
77051;SDS011;65980;44.898;8.602;2023-08-24T05:03:51;20.50;;;12.65;;
77051;SDS011;65980;44.898;8.602;2023-08-24T05:06:58;18.77;;;11.98;;
77051;SDS011;65980;44.898;8.602;2023-08-24T05:10:02;23.20;;;12.63;;
77051;SDS011;65980;44.898;8.602;2023-08-24T05:13:07;19.45;;;12.70;;
77051;SDS011;65980;44.898;8.602;2023-08-24T05:16:12;20.05;;;13.48;;
77051;SDS011;65980;44.898;8.602;2023-08-24T05:19:17;21.83;;;13.27;;
77051;SDS011;65980;44.898;8.602;2023-08-24T05:22:21;16.73;;;12.45;;
77051;SDS011;65980;44.898;8.602;2023-08-24T05:25:29;19.17;;;13.25;;
77051;SDS011;65980;44.898;8.602;2023-08-24T05:28:33;23.55;;;12.75;;
77051;SDS011;65980;44.898;8.602;2023-08-24T05:31:37;25.40;;;12.55;;
77051;SDS011;65980;44.898;8.602;2023-08-24T05:34:42;17.95;;;12.63;;
77051;SDS011;65980;44.898;8.602;2023-08-24T05:37:46;22.40;;;13.57;;
77051;SDS011;65980;44.898;8.602;2023-08-24T05:40:50;17.15;;;13.15;;
77051;SDS011;65980;44.898;8.602;2023-08-24T05:43:55;20.27;;;13.43;;
77051;SDS011;65980;44.898;8.602;2023-08-24T05:47:02;19.25;;;13.15;;
77051;SDS011;65980;44.898;8.602;2023-08-24T05:50:06;19.65;;;13.00;;
77051;SDS011;65980;44.898;8.602;2023-08-24T05:53:11;25.33;;;14.32;;
77051;SDS011;65980;44.898;8.602;2023-08-24T05:56:16;25.75;;;14.30;;
77051;SDS011;65980;44.898;8.602;2023-08-24T05:59:21;22.42;;;14.65;;
77051;SDS011;65980;44.898;8.602;2023-08-24T06:02:25;34.15;;;13.60;;
77051;SDS011;65980;44.898;8.602;2023-08-24T06:05:30;23.10;;;14.55;;
77051;SDS011;65980;44.898;8.602;2023-08-24T06:08:38;25.20;;;14.90;;
77051;SDS011;65980;44.898;8.602;2023-08-24T06:11:42;32.35;;;14.77;;
77051;SDS011;65980;44.898;8.602;2023-08-24T06:14:46;26.05;;;16.15;;
77051;SDS011;65980;44.898;8.602;2023-08-24T06:17:50;23.27;;;13.52;;
77051;SDS011;65980;44.898;8.602;2023-08-24T06:20:55;21.88;;;13.45;;
77051;SDS011;65980;44.898;8.602;2023-08-24T06:23:59;27.17;;;16.90;;
77051;SDS011;65980;44.898;8.602;2023-08-24T06:27:04;22.50;;;14.93;;
77051;SDS011;65980;44.898;8.602;2023-08-24T06:30:08;24.45;;;15.63;;
77051;SDS011;65980;44.898;8.602;2023-08-24T06:33:13;25.75;;;15.18;;
77051;SDS011;65980;44.898;8.602;2023-08-24T06:36:21;24.10;;;14.93;;
77051;SDS011;65980;44.898;8.602;2023-08-24T06:39:25;30.65;;;16.08;;
77051;SDS011;65980;44.898;8.602;2023-08-24T06:42:29;29.88;;;16.63;;
77051;SDS011;65980;44.898;8.602;2023-08-24T06:45:33;27.98;;;17.10;;
77051;SDS011;65980;44.898;8.602;2023-08-24T06:48:38;30.13;;;16.52;;
77051;SDS011;65980;44.898;8.602;2023-08-24T06:51:43;26.75;;;15.85;;
77051;SDS011;65980;44.898;8.602;2023-08-24T06:54:47;32.88;;;17.60;;
77051;SDS011;65980;44.898;8.602;2023-08-24T06:57:57;32.65;;;19.92;;
77051;SDS011;65980;44.898;8.602;2023-08-24T07:01:01;34.63;;;20.38;;
77051;SDS011;65980;44.898;8.602;2023-08-24T07:04:09;70.57;;;17.77;;
77051;SDS011;65980;44.898;8.602;2023-08-24T07:07:13;116.85;;;22.05;;
77051;SDS011;65980;44.898;8.602;2023-08-24T07:10:17;27.63;;;15.52;;
77051;SDS011;65980;44.898;8.602;2023-08-24T07:13:22;32.65;;;17.92;;
77051;SDS011;65980;44.898;8.602;2023-08-24T07:16:27;33.40;;;19.88;;
77051;SDS011;65980;44.898;8.602;2023-08-24T07:19:31;26.02;;;19.23;;
77051;SDS011;65980;44.898;8.602;2023-08-24T07:22:35;21.27;;;16.02;;
77051;SDS011;65980;44.898;8.602;2023-08-24T07:25:39;33.60;;;17.50;;
77051;SDS011;65980;44.898;8.602;2023-08-24T07:28:45;37.00;;;17.98;;
77051;SDS011;65980;44.898;8.602;2023-08-24T07:31:49;37.50;;;18.15;;
77051;SDS011;65980;44.898;8.602;2023-08-24T07:34:53;25.88;;;17.42;;
77051;SDS011;65980;44.898;8.602;2023-08-24T07:37:57;29.60;;;17.15;;
77051;SDS011;65980;44.898;8.602;2023-08-24T07:41:05;33.88;;;18.77;;
77051;SDS011;65980;44.898;8.602;2023-08-24T07:44:10;34.03;;;17.95;;
77051;SDS011;65980;44.898;8.602;2023-08-24T07:47:15;25.60;;;16.15;;
77051;SDS011;65980;44.898;8.602;2023-08-24T07:50:19;29.67;;;17.10;;
77051;SDS011;65980;44.898;8.602;2023-08-24T07:53:24;28.08;;;18.48;;
77051;SDS011;65980;44.898;8.602;2023-08-24T07:56:28;29.05;;;19.85;;
77051;SDS011;65980;44.898;8.602;2023-08-24T07:59:33;31.92;;;19.33;;
77051;SDS011;65980;44.898;8.602;2023-08-24T08:02:37;29.00;;;19.30;;
77051;SDS011;65980;44.898;8.602;2023-08-24T08:05:42;26.45;;;18.73;;
77051;SDS011;65980;44.898;8.602;2023-08-24T08:08:48;35.30;;;17.70;;
77051;SDS011;65980;44.898;8.602;2023-08-24T08:11:54;38.97;;;18.45;;
77051;SDS011;65980;44.898;8.602;2023-08-24T08:14:58;23.67;;;16.73;;
77051;SDS011;65980;44.898;8.602;2023-08-24T08:18:03;31.98;;;17.63;;
77051;SDS011;65980;44.898;8.602;2023-08-24T08:21:09;28.30;;;19.02;;
77051;SDS011;65980;44.898;8.602;2023-08-24T08:24:15;28.77;;;17.70;;
77051;SDS011;65980;44.898;8.602;2023-08-24T08:27:19;25.00;;;15.75;;
77051;SDS011;65980;44.898;8.602;2023-08-24T08:30:25;29.02;;;17.85;;
77051;SDS011;65980;44.898;8.602;2023-08-24T08:33:29;31.45;;;18.10;;
77051;SDS011;65980;44.898;8.602;2023-08-24T08:36:34;28.85;;;18.27;;
77051;SDS011;65980;44.898;8.602;2023-08-24T08:39:39;27.95;;;19.00;;
77051;SDS011;65980;44.898;8.602;2023-08-24T08:42:43;28.55;;;17.92;;
77051;SDS011;65980;44.898;8.602;2023-08-24T08:45:47;32.53;;;18.17;;
77051;SDS011;65980;44.898;8.602;2023-08-24T08:48:54;30.90;;;17.88;;
77051;SDS011;65980;44.898;8.602;2023-08-24T08:51:59;28.92;;;18.90;;
77051;SDS011;65980;44.898;8.602;2023-08-24T08:55:04;30.33;;;15.93;;
77051;SDS011;65980;44.898;8.602;2023-08-24T08:58:11;28.83;;;17.00;;
77051;SDS011;65980;44.898;8.602;2023-08-24T09:01:16;32.65;;;18.02;;
77051;SDS011;65980;44.898;8.602;2023-08-24T09:04:21;28.55;;;18.27;;
77051;SDS011;65980;44.898;8.602;2023-08-24T09:07:27;23.27;;;14.32;;
77051;SDS011;65980;44.898;8.602;2023-08-24T09:10:31;25.00;;;15.48;;
77051;SDS011;65980;44.898;8.602;2023-08-24T09:13:35;30.42;;;18.77;;
77051;SDS011;65980;44.898;8.602;2023-08-24T09:16:40;23.75;;;18.52;;
77051;SDS011;65980;44.898;8.602;2023-08-24T09:19:45;25.92;;;18.73;;
77051;SDS011;65980;44.898;8.602;2023-08-24T09:22:50;30.38;;;15.07;;
77051;SDS011;65980;44.898;8.602;2023-08-24T09:25:58;24.83;;;15.80;;
77051;SDS011;65980;44.898;8.602;2023-08-24T09:29:16;29.40;;;19.15;;
77051;SDS011;65980;44.898;8.602;2023-08-24T09:32:30;23.88;;;15.65;;
77051;SDS011;65980;44.898;8.602;2023-08-24T09:35:38;30.73;;;17.05;;
77051;SDS011;65980;44.898;8.602;2023-08-24T09:38:45;24.38;;;13.80;;
77051;SDS011;65980;44.898;8.602;2023-08-24T09:41:51;30.02;;;18.15;;
77051;SDS011;65980;44.898;8.602;2023-08-24T09:44:57;24.85;;;15.95;;
77051;SDS011;65980;44.898;8.602;2023-08-24T09:48:08;21.13;;;15.45;;
77051;SDS011;65980;44.898;8.602;2023-08-24T09:51:16;17.52;;;12.90;;
77051;SDS011;65980;44.898;8.602;2023-08-24T09:54:20;35.88;;;16.55;;
77051;SDS011;65980;44.898;8.602;2023-08-24T09:57:31;20.58;;;12.73;;
77051;SDS011;65980;44.898;8.602;2023-08-24T10:00:43;21.45;;;12.35;;
77051;SDS011;65980;44.898;8.602;2023-08-24T10:03:53;24.23;;;13.15;;
77051;SDS011;65980;44.898;8.602;2023-08-24T10:07:08;25.55;;;13.75;;
77051;SDS011;65980;44.898;8.602;2023-08-24T10:10:15;18.15;;;12.07;;
77051;SDS011;65980;44.898;8.602;2023-08-24T10:13:23;16.35;;;12.27;;
77051;SDS011;65980;44.898;8.602;2023-08-24T10:16:48;23.38;;;14.25;;
77051;SDS011;65980;44.898;8.602;2023-08-24T10:19:54;28.70;;;14.00;;
77051;SDS011;65980;44.898;8.602;2023-08-24T10:23:01;24.45;;;14.38;;
77051;SDS011;65980;44.898;8.602;2023-08-24T10:26:06;12.63;;;9.93;;
77051;SDS011;65980;44.898;8.602;2023-08-24T10:29:12;19.52;;;12.65;;
77051;SDS011;65980;44.898;8.602;2023-08-24T10:32:17;20.73;;;11.95;;
77051;SDS011;65980;44.898;8.602;2023-08-24T10:35:23;20.95;;;9.95;;
77051;SDS011;65980;44.898;8.602;2023-08-24T10:38:30;19.00;;;9.82;;
77051;SDS011;65980;44.898;8.602;2023-08-24T10:44:52;20.55;;;10.80;;
77051;SDS011;65980;44.898;8.602;2023-08-24T10:47:57;16.20;;;8.40;;
77051;SDS011;65980;44.898;8.602;2023-08-24T10:51:23;18.05;;;10.40;;
77051;SDS011;65980;44.898;8.602;2023-08-24T10:54:30;16.25;;;9.73;;
77051;SDS011;65980;44.898;8.602;2023-08-24T10:57:38;20.42;;;8.55;;
77051;SDS011;65980;44.898;8.602;2023-08-24T11:00:48;13.93;;;9.35;;
77051;SDS011;65980;44.898;8.602;2023-08-24T11:03:56;16.35;;;9.45;;
77051;SDS011;65980;44.898;8.602;2023-08-24T11:07:00;13.38;;;8.70;;
77051;SDS011;65980;44.898;8.602;2023-08-24T11:17:21;14.90;;;8.50;;
77051;SDS011;65980;44.898;8.602;2023-08-24T11:20:26;16.42;;;8.85;;
77051;SDS011;65980;44.898;8.602;2023-08-24T11:23:31;13.10;;;8.32;;
77051;SDS011;65980;44.898;8.602;2023-08-24T11:26:54;12.98;;;8.73;;
77051;SDS011;65980;44.898;8.602;2023-08-24T11:33:04;13.93;;;8.70;;
77051;SDS011;65980;44.898;8.602;2023-08-24T11:36:08;15.00;;;9.25;;
77051;SDS011;65980;44.898;8.602;2023-08-24T11:39:14;13.10;;;8.43;;
77051;SDS011;65980;44.898;8.602;2023-08-24T11:42:35;18.20;;;8.43;;
77051;SDS011;65980;44.898;8.602;2023-08-24T11:45:40;16.02;;;8.75;;
77051;SDS011;65980;44.898;8.602;2023-08-24T11:48:46;13.18;;;8.32;;
77051;SDS011;65980;44.898;8.602;2023-08-24T11:51:50;15.65;;;8.25;;
77051;SDS011;65980;44.898;8.602;2023-08-24T11:54:58;11.60;;;8.27;;
77051;SDS011;65980;44.898;8.602;2023-08-24T11:58:04;13.02;;;9.07;;
77051;SDS011;65980;44.898;8.602;2023-08-24T12:01:08;11.68;;;8.23;;
77051;SDS011;65980;44.898;8.602;2023-08-24T12:04:13;17.08;;;9.07;;
77051;SDS011;65980;44.898;8.602;2023-08-24T12:07:20;12.15;;;8.68;;
77051;SDS011;65980;44.898;8.602;2023-08-24T12:10:26;10.73;;;8.13;;
77051;SDS011;65980;44.898;8.602;2023-08-24T12:13:32;14.68;;;8.57;;
77051;SDS011;65980;44.898;8.602;2023-08-24T12:16:38;11.90;;;8.48;;
77051;SDS011;65980;44.898;8.602;2023-08-24T12:19:45;17.00;;;8.55;;
77051;SDS011;65980;44.898;8.602;2023-08-24T12:23:02;15.07;;;8.82;;
77051;SDS011;65980;44.898;8.602;2023-08-24T12:26:07;14.60;;;9.02;;
77051;SDS011;65980;44.898;8.602;2023-08-24T12:29:12;12.27;;;9.57;;
77051;SDS011;65980;44.898;8.602;2023-08-24T12:32:16;16.10;;;8.93;;
77051;SDS011;65980;44.898;8.602;2023-08-24T12:35:24;12.77;;;8.10;;
77051;SDS011;65980;44.898;8.602;2023-08-24T12:38:28;16.75;;;8.40;;
77051;SDS011;65980;44.898;8.602;2023-08-24T12:41:31;11.35;;;7.72;;
77051;SDS011;65980;44.898;8.602;2023-08-24T12:44:36;12.23;;;7.80;;
77051;SDS011;65980;44.898;8.602;2023-08-24T12:47:41;14.65;;;8.32;;
77051;SDS011;65980;44.898;8.602;2023-08-24T12:50:46;13.00;;;7.78;;
77051;SDS011;65980;44.898;8.602;2023-08-24T12:53:50;12.55;;;7.38;;
77051;SDS011;65980;44.898;8.602;2023-08-24T12:56:55;8.50;;;7.60;;
77051;SDS011;65980;44.898;8.602;2023-08-24T12:59:59;12.52;;;7.45;;
77051;SDS011;65980;44.898;8.602;2023-08-24T13:03:03;9.07;;;7.03;;
77051;SDS011;65980;44.898;8.602;2023-08-24T13:06:07;15.18;;;7.20;;
77051;SDS011;65980;44.898;8.602;2023-08-24T13:09:11;14.13;;;7.75;;
77051;SDS011;65980;44.898;8.602;2023-08-24T13:12:16;19.15;;;7.20;;
77051;SDS011;65980;44.898;8.602;2023-08-24T13:15:21;11.35;;;6.90;;
77051;SDS011;65980;44.898;8.602;2023-08-24T13:18:24;9.73;;;6.82;;
77051;SDS011;65980;44.898;8.602;2023-08-24T13:21:29;13.65;;;6.78;;
77051;SDS011;65980;44.898;8.602;2023-08-24T13:24:34;15.02;;;6.72;;
77051;SDS011;65980;44.898;8.602;2023-08-24T13:27:39;12.13;;;6.95;;
77051;SDS011;65980;44.898;8.602;2023-08-24T13:30:43;9.65;;;6.75;;
77051;SDS011;65980;44.898;8.602;2023-08-24T13:33:47;11.45;;;7.22;;
77051;SDS011;65980;44.898;8.602;2023-08-24T13:36:51;18.55;;;7.32;;
77051;SDS011;65980;44.898;8.602;2023-08-24T13:39:55;9.88;;;6.70;;
77051;SDS011;65980;44.898;8.602;2023-08-24T13:42:58;16.38;;;7.18;;
77051;SDS011;65980;44.898;8.602;2023-08-24T13:46:03;14.05;;;6.90;;
77051;SDS011;65980;44.898;8.602;2023-08-24T13:49:06;11.52;;;7.00;;
77051;SDS011;65980;44.898;8.602;2023-08-24T13:52:12;14.73;;;6.88;;
77051;SDS011;65980;44.898;8.602;2023-08-24T13:55:17;13.57;;;7.80;;
77051;SDS011;65980;44.898;8.602;2023-08-24T13:58:21;19.15;;;7.13;;
77051;SDS011;65980;44.898;8.602;2023-08-24T14:01:26;11.88;;;7.15;;
77051;SDS011;65980;44.898;8.602;2023-08-24T14:04:30;15.82;;;7.25;;
77051;SDS011;65980;44.898;8.602;2023-08-24T14:07:34;12.02;;;6.90;;
77051;SDS011;65980;44.898;8.602;2023-08-24T14:10:39;12.40;;;7.30;;
77051;SDS011;65980;44.898;8.602;2023-08-24T14:13:44;12.05;;;7.68;;
77051;SDS011;65980;44.898;8.602;2023-08-24T14:16:53;12.43;;;7.38;;
77051;SDS011;65980;44.898;8.602;2023-08-24T14:19:59;14.40;;;7.40;;
77051;SDS011;65980;44.898;8.602;2023-08-24T14:23:08;15.48;;;7.93;;
77051;SDS011;65980;44.898;8.602;2023-08-24T14:26:12;12.23;;;7.07;;
77051;SDS011;65980;44.898;8.602;2023-08-24T14:29:17;13.73;;;7.38;;
77051;SDS011;65980;44.898;8.602;2023-08-24T14:32:20;10.52;;;6.90;;
77051;SDS011;65980;44.898;8.602;2023-08-24T14:35:27;10.30;;;7.10;;
77051;SDS011;65980;44.898;8.602;2023-08-24T14:38:30;18.92;;;7.35;;
77051;SDS011;65980;44.898;8.602;2023-08-24T14:41:35;11.80;;;7.35;;
77051;SDS011;65980;44.898;8.602;2023-08-24T14:44:40;13.38;;;7.68;;
77051;SDS011;65980;44.898;8.602;2023-08-24T14:47:44;14.05;;;7.03;;
77051;SDS011;65980;44.898;8.602;2023-08-24T14:50:49;17.05;;;7.93;;
77051;SDS011;65980;44.898;8.602;2023-08-24T14:53:52;12.00;;;7.45;;
77051;SDS011;65980;44.898;8.602;2023-08-24T14:56:56;14.27;;;7.80;;
77051;SDS011;65980;44.898;8.602;2023-08-24T15:00:03;20.48;;;8.68;;
77051;SDS011;65980;44.898;8.602;2023-08-24T15:03:09;13.80;;;8.10;;
77051;SDS011;65980;44.898;8.602;2023-08-24T15:06:13;17.63;;;7.75;;
77051;SDS011;65980;44.898;8.602;2023-08-24T15:09:17;20.00;;;8.13;;
77051;SDS011;65980;44.898;8.602;2023-08-24T15:12:21;14.27;;;7.97;;
77051;SDS011;65980;44.898;8.602;2023-08-24T15:15:26;14.35;;;8.15;;
77051;SDS011;65980;44.898;8.602;2023-08-24T15:18:31;15.73;;;7.70;;
77051;SDS011;65980;44.898;8.602;2023-08-24T15:21:34;11.98;;;7.75;;
77051;SDS011;65980;44.898;8.602;2023-08-24T15:24:39;13.10;;;7.10;;
77051;SDS011;65980;44.898;8.602;2023-08-24T15:27:44;13.02;;;7.00;;
77051;SDS011;65980;44.898;8.602;2023-08-24T15:30:51;17.30;;;6.88;;
77051;SDS011;65980;44.898;8.602;2023-08-24T15:33:56;11.43;;;6.47;;
77051;SDS011;65980;44.898;8.602;2023-08-24T15:37:00;14.00;;;6.63;;
77051;SDS011;65980;44.898;8.602;2023-08-24T15:40:03;15.43;;;6.75;;
77051;SDS011;65980;44.898;8.602;2023-08-24T15:43:08;14.55;;;6.70;;
77051;SDS011;65980;44.898;8.602;2023-08-24T15:46:15;21.70;;;6.65;;
77051;SDS011;65980;44.898;8.602;2023-08-24T15:49:21;13.23;;;6.38;;
77051;SDS011;65980;44.898;8.602;2023-08-24T15:52:30;14.77;;;6.85;;
77051;SDS011;65980;44.898;8.602;2023-08-24T15:55:34;11.20;;;6.20;;
77051;SDS011;65980;44.898;8.602;2023-08-24T15:58:37;12.77;;;6.78;;
77051;SDS011;65980;44.898;8.602;2023-08-24T16:01:43;14.45;;;6.72;;
77051;SDS011;65980;44.898;8.602;2023-08-24T16:04:49;10.95;;;6.50;;
77051;SDS011;65980;44.898;8.602;2023-08-24T16:07:53;8.23;;;6.35;;
77051;SDS011;65980;44.898;8.602;2023-08-24T16:10:58;10.10;;;5.90;;
77051;SDS011;65980;44.898;8.602;2023-08-24T16:14:02;14.52;;;6.28;;
77051;SDS011;65980;44.898;8.602;2023-08-24T16:17:07;11.25;;;6.57;;
77051;SDS011;65980;44.898;8.602;2023-08-24T16:20:10;9.68;;;6.35;;
77051;SDS011;65980;44.898;8.602;2023-08-24T16:23:14;12.63;;;6.13;;
77051;SDS011;65980;44.898;8.602;2023-08-24T16:26:18;18.55;;;5.85;;
77051;SDS011;65980;44.898;8.602;2023-08-24T16:29:23;9.75;;;5.82;;
77051;SDS011;65980;44.898;8.602;2023-08-24T16:32:27;16.65;;;6.35;;
77051;SDS011;65980;44.898;8.602;2023-08-24T16:35:30;8.50;;;5.65;;
77051;SDS011;65980;44.898;8.602;2023-08-24T16:38:34;12.02;;;6.15;;
77051;SDS011;65980;44.898;8.602;2023-08-24T16:41:39;11.23;;;6.30;;
77051;SDS011;65980;44.898;8.602;2023-08-24T16:44:42;9.20;;;5.60;;
77051;SDS011;65980;44.898;8.602;2023-08-24T16:47:47;10.50;;;5.78;;
77051;SDS011;65980;44.898;8.602;2023-08-24T16:50:51;10.10;;;5.50;;
77051;SDS011;65980;44.898;8.602;2023-08-24T16:53:59;11.35;;;6.05;;
77051;SDS011;65980;44.898;8.602;2023-08-24T16:57:04;8.85;;;5.60;;
77051;SDS011;65980;44.898;8.602;2023-08-24T17:00:09;8.80;;;5.70;;
77051;SDS011;65980;44.898;8.602;2023-08-24T17:03:14;7.95;;;5.20;;
77051;SDS011;65980;44.898;8.602;2023-08-24T17:06:19;11.90;;;5.72;;
77051;SDS011;65980;44.898;8.602;2023-08-24T17:09:24;9.02;;;5.40;;
77051;SDS011;65980;44.898;8.602;2023-08-24T17:12:27;10.13;;;5.60;;
77051;SDS011;65980;44.898;8.602;2023-08-24T17:15:32;10.70;;;5.50;;
77051;SDS011;65980;44.898;8.602;2023-08-24T17:18:37;10.70;;;5.70;;
77051;SDS011;65980;44.898;8.602;2023-08-24T17:21:41;16.77;;;5.85;;
77051;SDS011;65980;44.898;8.602;2023-08-24T17:24:45;11.25;;;5.18;;
77051;SDS011;65980;44.898;8.602;2023-08-24T17:27:49;10.75;;;5.05;;
77051;SDS011;65980;44.898;8.602;2023-08-24T17:30:53;11.57;;;5.20;;
77051;SDS011;65980;44.898;8.602;2023-08-24T17:33:58;14.88;;;5.82;;
77051;SDS011;65980;44.898;8.602;2023-08-24T17:37:03;13.52;;;5.40;;
77051;SDS011;65980;44.898;8.602;2023-08-24T17:40:08;11.13;;;5.50;;
77051;SDS011;65980;44.898;8.602;2023-08-24T17:43:15;12.05;;;6.05;;
77051;SDS011;65980;44.898;8.602;2023-08-24T17:46:19;10.48;;;6.22;;
77051;SDS011;65980;44.898;8.602;2023-08-24T17:49:23;17.33;;;6.45;;
77051;SDS011;65980;44.898;8.602;2023-08-24T17:52:31;12.93;;;6.40;;
77051;SDS011;65980;44.898;8.602;2023-08-24T17:55:35;16.65;;;6.18;;
77051;SDS011;65980;44.898;8.602;2023-08-24T17:58:40;9.73;;;5.85;;
77051;SDS011;65980;44.898;8.602;2023-08-24T18:01:43;13.55;;;6.05;;
77051;SDS011;65980;44.898;8.602;2023-08-24T18:04:48;11.38;;;5.72;;
77051;SDS011;65980;44.898;8.602;2023-08-24T18:07:52;8.85;;;5.60;;
77051;SDS011;65980;44.898;8.602;2023-08-24T18:11:00;11.35;;;5.60;;
77051;SDS011;65980;44.898;8.602;2023-08-24T18:14:08;12.15;;;5.65;;
77051;SDS011;65980;44.898;8.602;2023-08-24T18:17:12;13.30;;;5.55;;
77051;SDS011;65980;44.898;8.602;2023-08-24T18:20:16;9.32;;;5.75;;
77051;SDS011;65980;44.898;8.602;2023-08-24T18:23:23;11.70;;;5.20;;
77051;SDS011;65980;44.898;8.602;2023-08-24T18:26:27;11.88;;;5.72;;
77051;SDS011;65980;44.898;8.602;2023-08-24T18:29:31;13.80;;;5.78;;